Aeroporto :
LOGIN :

Iscrizione | Disclaimer

   EN    FR    IT 

 










Sommario :    VFR   VFR Marginale   IFR   IFR Intensivo   IFR Molto Intensivo
Visibilità : 
Base nubi : 
>= 8 km
>= 3000ft
5 / 8 km
1000 / 3000 ft
1500m / 5 km
500 / 1000 ft
800 / 1500m
200 / 500 ft
< 800m
< 200 ft
Simboli :   Temporali  Nebbia  Neve Forte  Precipitazioni Forti  Vento > 20 kt
SIGMETs :   Varie  Temporali  Ghiacco  Turbolenza  Onda orograficha  Ceneri Vulcaniche







- Altitudine del aeroporto : 124 ft
- Codice IATA : RNS
- Carte del aeroporto


LFRN - Rennes

ULTIMO METAR :
  • 191400Z AUTO 32011KT 300V360 CAVOK 19/10 Q1009 TEMPO 4000 SHRA BKN030TCU

METARs OBSOLETI :
  • 191330Z AUTO 33009KT 9999 FEW041 BKN086 OVC100 17/09 Q1009 TEMPO 4000 SHRA BKN030TCU
  • 191300Z AUTO 33010KT 9999 SCT038 SCT048 BKN100 18/08 Q1009 TEMPO 4000 SHRA BKN030TCU
  • 191230Z AUTO 32011KT 290V350 9999 SCT039 SCT050 BKN092 18/09 Q1009 TEMPO 4000 SHRA BKN030TCU
  • 191200Z AUTO 32009KT 290V350 9999 SCT033 SCT041 BKN058 17/10 Q1009 TEMPO 4000 SHRA BKN030TCU
  • 191130Z AUTO 31009KT 290V350 9999 BKN031 BKN088 16/10 Q1009 TEMPO 4000 SHRA BKN030TCU

TAF TAF LFRN
Valido dal 19 a 12 ore il 20 a 12 ore UTC


191100Z 1912/2012 32010KT 9999 BKN030
PROB40
TEMPO 1912/1916 4000 SHRA BKN030TCU
BECMG 2000/2002 VRB03KT
TEMPO 2003/2007 3000 BR BKN003
PROB30
TEMPO 2009/2012 5000 SHRA
ATIS : +33 2 99 67 72 50
Nessun NOTAM noto per questo aeroporto.



MetMap, La meteo Aeronautica in un colpo d'occhio ! - Copyright ORBIFLY Dicembre 2007 - Disclaimer

ORBIFLY MET'MAP TEAM :

Programmazione e sviluppo : Alexandra Zaïnal
Concezione e sviluppo : Baudouin d'Aumeries
Co-Programmazione e sviluppo : Marc-Olivier Méhu
Supporto tecnico e logistico : Manuel Goepfert
Aiuto per la traduzione : Arnaldo La Scala

Contatto : metmap@orbifly.com




FONTI E CREDITI :

   NOAA